createdAt,value
2022-10-13T00:01:57.275Z,16.02
2022-10-13T00:04:58.804Z,16.25
2022-10-13T00:08:00.581Z,14.48
2022-10-13T00:11:02.277Z,17.08
2022-10-13T00:14:04.586Z,15.98
2022-10-13T00:17:06.359Z,15.20
2022-10-13T00:20:08.772Z,15.85
2022-10-13T00:23:10.749Z,15.15
2022-10-13T00:26:14.712Z,15.13
2022-10-13T00:29:16.221Z,15.27
2022-10-13T00:32:18.807Z,15.35
2022-10-13T00:35:20.556Z,14.95
2022-10-13T00:38:23.212Z,15.88
2022-10-13T00:41:24.918Z,14.20
2022-10-13T00:44:59.189Z,14.95
2022-10-13T00:48:01.886Z,15.07
2022-10-13T00:51:04.285Z,15.82
2022-10-13T00:54:06.924Z,15.48
2022-10-13T00:57:09.944Z,14.98
2022-10-13T01:00:12.453Z,14.32
2022-10-13T01:03:14.511Z,13.90
2022-10-13T01:06:22.521Z,14.85
2022-10-13T01:09:25.108Z,13.45
2022-10-13T01:12:41.557Z,14.77
2022-10-13T01:15:58.124Z,14.07
2022-10-13T01:19:27.400Z,14.10
2022-10-13T01:23:13.912Z,14.07
2022-10-13T01:26:34.298Z,14.45
2022-10-13T01:30:05.313Z,14.30
2022-10-13T01:33:25.973Z,13.13
2022-10-13T01:37:06.084Z,14.20
2022-10-13T01:40:20.189Z,13.93
2022-10-13T01:43:30.315Z,12.68
2022-10-13T01:46:37.600Z,14.85
2022-10-13T01:49:39.941Z,13.23
2022-10-13T01:52:42.710Z,14.85
2022-10-13T01:55:59.672Z,13.25
2022-10-13T01:59:06.157Z,13.15
2022-10-13T02:02:19.132Z,13.07
2022-10-13T02:05:52.486Z,13.27
2022-10-13T02:09:10.149Z,14.40
2022-10-13T02:12:43.630Z,12.60
2022-10-13T02:15:48.298Z,12.30
2022-10-13T02:18:51.017Z,12.32
2022-10-13T02:21:53.274Z,14.15
2022-10-13T02:24:55.305Z,13.23
2022-10-13T02:27:59.667Z,12.90
2022-10-13T02:31:01.668Z,13.02
2022-10-13T02:34:03.649Z,13.65
2022-10-13T02:37:05.197Z,13.32
2022-10-13T02:40:07.294Z,13.18
2022-10-13T02:43:09.037Z,12.45
2022-10-13T02:46:10.566Z,12.43
2022-10-13T02:49:12.338Z,12.63
2022-10-13T02:52:14.660Z,12.40
2022-10-13T02:55:16.537Z,11.88
2022-10-13T02:58:18.055Z,13.00
2022-10-13T03:01:19.676Z,13.50
2022-10-13T03:04:21.187Z,11.73
2022-10-13T03:07:22.840Z,12.35
2022-10-13T03:10:24.597Z,12.60
2022-10-13T03:13:26.513Z,12.75
2022-10-13T03:16:28.058Z,11.95
2022-10-13T03:19:29.661Z,12.30
2022-10-13T03:22:32.896Z,13.20
2022-10-13T03:25:35.691Z,12.23
2022-10-13T03:28:37.342Z,12.32
2022-10-13T03:31:39.372Z,13.70
2022-10-13T03:34:41.081Z,14.65
2022-10-13T03:37:42.649Z,13.82
2022-10-13T03:40:44.203Z,13.30
2022-10-13T03:43:45.761Z,14.38
2022-10-13T03:46:47.307Z,14.95
2022-10-13T03:49:48.895Z,13.15
2022-10-13T03:52:50.440Z,14.43
2022-10-13T03:55:56.065Z,13.98
2022-10-13T03:59:00.085Z,13.63
2022-10-13T04:02:01.715Z,14.43
2022-10-13T04:05:03.417Z,13.93
2022-10-13T04:08:05.423Z,15.48
2022-10-13T04:11:14.033Z,15.00
2022-10-13T04:14:15.594Z,13.65
2022-10-13T04:17:17.219Z,14.38
2022-10-13T04:20:18.999Z,13.77
2022-10-13T04:23:20.585Z,13.82
2022-10-13T04:26:22.933Z,14.63
2022-10-13T04:29:24.505Z,12.80
2022-10-13T04:32:26.019Z,13.18
2022-10-13T04:35:27.637Z,14.20
2022-10-13T04:38:29.164Z,12.55
2022-10-13T04:41:30.698Z,13.70
2022-10-13T04:44:32.259Z,13.50
2022-10-13T04:47:37.213Z,13.60
2022-10-13T04:50:38.822Z,12.73
2022-10-13T04:53:40.972Z,13.35
2022-10-13T04:56:45.433Z,12.80
2022-10-13T04:59:47.108Z,13.18
2022-10-13T05:02:48.691Z,13.25
2022-10-13T05:05:50.764Z,13.25
2022-10-13T05:08:52.673Z,12.93
2022-10-13T05:11:57.272Z,13.55
2022-10-13T05:14:58.864Z,12.82
2022-10-13T05:18:00.520Z,13.95
2022-10-13T05:21:15.323Z,13.48
2022-10-13T05:24:16.969Z,12.85
2022-10-13T05:27:18.508Z,12.13
2022-10-13T05:30:20.220Z,12.80
2022-10-13T05:33:21.803Z,12.95
2022-10-13T05:36:32.945Z,13.68
2022-10-13T05:39:34.497Z,12.23
2022-10-13T05:42:36.951Z,12.35
2022-10-13T05:45:39.300Z,13.05
2022-10-13T05:48:40.883Z,12.63
2022-10-13T05:51:50.499Z,12.65
2022-10-13T05:54:56.462Z,12.70
2022-10-13T05:57:57.983Z,13.93
2022-10-13T06:00:59.729Z,13.27
2022-10-13T06:04:07.652Z,12.32
2022-10-13T06:07:10.032Z,12.88
2022-10-13T06:10:12.287Z,13.55
2022-10-13T06:13:13.797Z,13.43
2022-10-13T06:16:15.369Z,14.45
2022-10-13T06:19:17.031Z,13.82
2022-10-13T06:22:18.933Z,13.45
2022-10-13T06:25:20.712Z,13.20
2022-10-13T06:28:22.457Z,12.77
2022-10-13T06:31:24.050Z,13.43
2022-10-13T06:34:25.553Z,13.35
2022-10-13T06:37:27.619Z,13.43
2022-10-13T06:40:29.284Z,15.85
2022-10-13T06:43:39.637Z,14.13
2022-10-13T06:46:41.866Z,14.07
2022-10-13T06:49:43.447Z,15.05
2022-10-13T06:52:45.050Z,13.27
2022-10-13T06:55:51.562Z,15.00
2022-10-13T06:58:53.941Z,13.80
2022-10-13T07:01:55.500Z,15.60
2022-10-13T07:04:57.089Z,14.60
2022-10-13T07:07:58.928Z,13.98
2022-10-13T07:11:06.415Z,13.52
2022-10-13T07:14:07.906Z,13.35
2022-10-13T07:17:09.548Z,14.13
2022-10-13T07:20:12.883Z,13.75
2022-10-13T07:23:14.565Z,14.75
2022-10-13T07:26:16.361Z,13.68
2022-10-13T07:29:18.173Z,15.35
2022-10-13T07:32:19.744Z,15.20
2022-10-13T07:35:24.761Z,14.85
2022-10-13T07:38:29.756Z,15.43
2022-10-13T07:41:31.389Z,14.65
2022-10-13T07:44:32.973Z,15.05
2022-10-13T07:47:34.808Z,13.95
2022-10-13T07:50:36.900Z,14.45
2022-10-13T07:53:39.354Z,14.38
2022-10-13T07:56:40.860Z,13.38
2022-10-13T07:59:42.443Z,14.73
2022-10-13T08:02:44.018Z,14.30
2022-10-13T08:05:45.599Z,14.23
2022-10-13T08:08:47.295Z,13.75
2022-10-13T08:11:48.881Z,13.13
2022-10-13T08:14:51.099Z,13.52
2022-10-13T08:17:52.701Z,13.85
2022-10-13T08:21:04.245Z,13.70
2022-10-13T08:24:16.441Z,12.27
2022-10-13T08:27:21.941Z,12.20
2022-10-13T08:30:24.535Z,13.10
2022-10-13T08:33:27.384Z,12.52
2022-10-13T08:36:28.969Z,13.57
2022-10-13T08:39:30.682Z,12.52
2022-10-13T08:42:32.334Z,12.68
2022-10-13T08:45:42.434Z,12.35
2022-10-13T08:48:44.179Z,12.10
2022-10-13T08:51:45.740Z,12.63
2022-10-13T08:54:47.721Z,13.27
2022-10-13T08:57:49.499Z,13.23
2022-10-13T09:01:06.315Z,14.25
2022-10-13T09:04:10.988Z,12.77
2022-10-13T09:07:17.673Z,12.13
2022-10-13T09:10:19.606Z,13.57
2022-10-13T09:13:21.702Z,12.52
2022-10-13T09:16:33.422Z,12.45
2022-10-13T09:19:36.327Z,11.23
2022-10-13T09:22:39.696Z,12.23
2022-10-13T09:25:43.977Z,11.80
2022-10-13T09:28:45.792Z,12.00
2022-10-13T09:31:47.603Z,11.18
2022-10-13T09:34:50.541Z,11.40
2022-10-13T09:38:05.812Z,11.18
2022-10-13T09:41:10.383Z,10.50
2022-10-13T09:44:22.138Z,12.02
2022-10-13T09:47:29.987Z,10.57
2022-10-13T09:50:35.075Z,11.07
2022-10-13T09:53:41.080Z,9.98
2022-10-13T09:56:48.780Z,11.50
2022-10-13T09:59:53.367Z,10.60
2022-10-13T10:03:17.582Z,10.95
2022-10-13T10:06:20.784Z,10.63
2022-10-13T10:09:45.532Z,10.18
2022-10-13T10:12:47.241Z,10.45
2022-10-13T10:15:55.807Z,10.73
2022-10-13T10:19:04.751Z,9.75
2022-10-13T10:22:30.283Z,12.88
2022-10-13T10:25:40.494Z,11.57
2022-10-13T10:29:15.220Z,16.25
2022-10-13T10:32:22.279Z,9.40
2022-10-13T10:35:51.369Z,9.05
2022-10-13T10:39:21.568Z,8.60
2022-10-13T10:42:56.993Z,8.85
2022-10-13T10:46:00.164Z,8.90
2022-10-13T10:49:19.741Z,8.50
2022-10-13T10:52:28.870Z,8.82
2022-10-13T10:55:52.691Z,7.95
2022-10-13T10:59:18.563Z,7.47
2022-10-13T11:03:14.439Z,8.40
2022-10-13T11:06:24.244Z,9.00
2022-10-13T11:09:41.102Z,9.23
2022-10-13T11:12:51.589Z,8.85
2022-10-13T11:18:55.916Z,8.93
2022-10-13T11:21:57.817Z,8.57
2022-10-13T11:25:39.841Z,9.30
2022-10-13T11:28:41.568Z,11.60
2022-10-13T11:31:54.476Z,9.82
2022-10-13T11:35:05.465Z,8.90
2022-10-13T11:38:29.247Z,10.35
2022-10-13T11:41:39.998Z,10.32
2022-10-13T11:45:02.714Z,9.05
2022-10-13T11:48:11.296Z,9.65
2022-10-13T11:51:54.444Z,10.00
2022-10-13T11:55:15.707Z,9.20
2022-10-13T11:58:24.633Z,9.27
2022-10-13T12:01:26.138Z,8.77
2022-10-13T12:04:28.556Z,9.63
2022-10-13T12:07:35.914Z,10.20
2022-10-13T12:10:38.021Z,10.15
2022-10-13T12:13:39.526Z,9.63
2022-10-13T12:16:59.103Z,9.38
2022-10-13T12:20:04.449Z,9.55
2022-10-13T12:23:16.950Z,9.77
2022-10-13T12:26:25.683Z,8.68
2022-10-13T12:29:32.117Z,7.80
2022-10-13T12:32:35.935Z,8.55
2022-10-13T12:35:37.455Z,9.00
2022-10-13T12:38:41.923Z,8.77
2022-10-13T12:41:46.477Z,8.38
2022-10-13T12:44:48.146Z,8.32
2022-10-13T12:47:52.692Z,8.50
2022-10-13T12:50:54.504Z,7.85
2022-10-13T12:53:56.509Z,8.23
2022-10-13T12:57:00.909Z,7.63
2022-10-13T13:00:20.412Z,9.10
2022-10-13T13:03:27.256Z,7.88
2022-10-13T13:06:32.677Z,8.00
2022-10-13T13:09:38.700Z,7.40
2022-10-13T13:12:40.632Z,7.60
2022-10-13T13:15:42.364Z,8.77
2022-10-13T13:18:46.641Z,8.80
2022-10-13T13:21:48.302Z,8.25
2022-10-13T13:24:51.048Z,8.82
2022-10-13T13:27:53.068Z,7.60
2022-10-13T13:30:54.649Z,7.25
2022-10-13T13:33:56.197Z,6.93
2022-10-13T13:36:57.913Z,6.82
2022-10-13T13:39:59.811Z,6.45
2022-10-13T13:43:01.495Z,6.28
2022-10-13T13:46:03.919Z,6.00
2022-10-13T13:49:06.236Z,6.07
2022-10-13T13:52:07.788Z,6.32
2022-10-13T13:55:09.674Z,7.13
2022-10-13T13:58:11.290Z,6.25
2022-10-13T14:01:14.111Z,6.53
2022-10-13T14:04:15.680Z,6.30
2022-10-13T14:07:17.777Z,5.97
2022-10-13T14:10:19.464Z,6.25
2022-10-13T14:13:21.022Z,6.95
2022-10-13T14:16:22.549Z,6.82
2022-10-13T14:19:24.136Z,6.95
2022-10-13T14:22:26.239Z,7.05
2022-10-13T14:25:28.043Z,7.70
2022-10-13T14:28:29.622Z,7.57
2022-10-13T14:31:32.685Z,7.38
2022-10-13T14:34:34.255Z,7.07
2022-10-13T14:37:37.191Z,8.35
2022-10-13T14:40:42.364Z,8.27
2022-10-13T14:43:44.073Z,7.15
2022-10-13T14:46:45.744Z,8.00
2022-10-13T14:49:47.292Z,8.63
2022-10-13T14:52:48.826Z,8.88
2022-10-13T14:55:50.377Z,9.57
2022-10-13T14:58:54.484Z,9.77
2022-10-13T15:01:56.011Z,9.15
2022-10-13T15:04:57.939Z,9.60
2022-10-13T15:07:59.552Z,8.93
2022-10-13T15:11:02.520Z,10.50
2022-10-13T15:14:04.482Z,10.07
2022-10-13T15:17:05.976Z,10.13
2022-10-13T15:20:08.281Z,10.00
2022-10-13T15:23:09.780Z,11.15
2022-10-13T15:26:12.952Z,11.55
2022-10-13T15:29:14.453Z,12.43
2022-10-13T15:32:18.523Z,10.95
2022-10-13T15:35:20.334Z,12.80
2022-10-13T15:38:22.612Z,13.70
2022-10-13T15:41:25.394Z,12.70
2022-10-13T15:44:27.680Z,14.35
2022-10-13T15:47:29.889Z,14.50
2022-10-13T15:50:31.799Z,14.05
2022-10-13T15:53:33.369Z,15.02
2022-10-13T15:56:34.927Z,14.90
2022-10-13T15:59:36.436Z,14.65
2022-10-13T16:02:38.265Z,14.98
2022-10-13T16:05:44.683Z,13.93
2022-10-13T16:08:46.175Z,15.02
2022-10-13T16:11:47.787Z,15.57
2022-10-13T16:14:49.316Z,15.77
2022-10-13T16:17:51.963Z,13.73
2022-10-13T16:20:53.458Z,15.55
2022-10-13T16:23:55.056Z,14.60
2022-10-13T16:26:56.591Z,15.10
2022-10-13T16:29:58.172Z,14.02
2022-10-13T16:32:59.683Z,15.18
2022-10-13T16:36:05.829Z,14.98
2022-10-13T16:39:07.467Z,15.30
2022-10-13T16:42:09.001Z,14.60
2022-10-13T16:45:10.776Z,14.68
2022-10-13T16:48:12.360Z,14.02
2022-10-13T16:51:22.816Z,14.23
2022-10-13T16:54:24.424Z,13.73
2022-10-13T16:57:26.047Z,14.35
2022-10-13T17:00:27.618Z,13.98
2022-10-13T17:03:29.403Z,16.63
2022-10-13T17:06:31.060Z,14.75
2022-10-13T17:09:32.646Z,17.60
2022-10-13T17:12:34.169Z,16.40
2022-10-13T17:15:35.719Z,16.85
2022-10-13T17:18:37.602Z,17.70
2022-10-13T17:21:39.176Z,17.73
2022-10-13T17:24:47.682Z,16.85
2022-10-13T17:27:49.182Z,15.05
2022-10-13T17:31:02.380Z,17.23
2022-10-13T17:34:03.988Z,16.15
2022-10-13T17:37:06.443Z,19.65
2022-10-13T17:40:08.420Z,17.25
2022-10-13T17:43:09.947Z,16.75
2022-10-13T17:46:37.877Z,16.40
2022-10-13T17:49:40.438Z,15.38
2022-10-13T17:52:41.956Z,17.85
2022-10-13T17:55:43.956Z,15.32
2022-10-13T17:59:13.763Z,15.75
2022-10-13T18:02:38.119Z,15.80
2022-10-13T18:05:41.952Z,14.88
2022-10-13T18:08:44.380Z,18.25
2022-10-13T18:11:50.762Z,15.07
2022-10-13T18:14:53.016Z,14.95
2022-10-13T18:17:54.757Z,16.90
2022-10-13T18:20:56.369Z,15.48
2022-10-13T18:24:04.046Z,16.75
2022-10-13T18:27:06.060Z,15.90
2022-10-13T18:30:09.810Z,16.83
2022-10-13T18:33:11.569Z,17.25
2022-10-13T18:36:28.298Z,18.42
2022-10-13T18:39:29.982Z,16.73
2022-10-13T18:42:31.709Z,19.15
2022-10-13T18:45:35.546Z,18.75
2022-10-13T18:48:37.118Z,17.58
2022-10-13T18:51:39.977Z,18.30
2022-10-13T18:54:41.487Z,18.00
2022-10-13T18:57:43.018Z,19.15
2022-10-13T19:00:50.003Z,25.10
2022-10-13T19:03:53.430Z,22.90
2022-10-13T19:06:55.121Z,19.73
2022-10-13T19:09:56.690Z,21.88
2022-10-13T19:12:58.295Z,24.50
2022-10-13T19:16:06.878Z,21.38
2022-10-13T19:19:09.447Z,20.25
2022-10-13T19:22:11.563Z,20.23
2022-10-13T19:25:13.144Z,22.05
2022-10-13T19:28:15.088Z,20.58
2022-10-13T19:31:22.734Z,20.90
2022-10-13T19:34:24.807Z,21.77
2022-10-13T19:37:29.169Z,21.27
2022-10-13T19:40:32.308Z,20.23
2022-10-13T19:43:34.403Z,23.92
2022-10-13T19:46:36.464Z,23.23
2022-10-13T19:49:38.118Z,22.25
2022-10-13T19:52:42.606Z,24.33
2022-10-13T19:55:47.532Z,20.42
2022-10-13T19:58:49.343Z,22.58
2022-10-13T20:02:03.932Z,19.42
2022-10-13T20:05:06.176Z,23.35
2022-10-13T20:08:10.665Z,26.17
2022-10-13T20:11:22.224Z,23.10
2022-10-13T20:14:25.148Z,23.33
2022-10-13T20:17:42.503Z,22.88
2022-10-13T20:20:44.726Z,25.60
2022-10-13T20:23:46.944Z,22.58
2022-10-13T20:26:51.739Z,26.52
2022-10-13T20:29:53.382Z,37.22
2022-10-13T20:32:59.655Z,26.48
2022-10-13T20:36:05.052Z,25.20
2022-10-13T20:39:07.589Z,24.17
2022-10-13T20:42:09.191Z,25.00
2022-10-13T20:45:10.727Z,24.65
2022-10-13T20:48:12.234Z,23.88
2022-10-13T20:51:15.578Z,25.27
2022-10-13T20:54:17.148Z,25.08
2022-10-13T20:57:18.989Z,24.25
2022-10-13T21:00:20.950Z,19.60
2022-10-13T21:03:23.648Z,19.95
2022-10-13T21:06:26.575Z,19.88
2022-10-13T21:09:28.165Z,18.20
2022-10-13T21:12:29.724Z,17.40
2022-10-13T21:15:31.323Z,19.73
2022-10-13T21:18:33.087Z,16.02
2022-10-13T21:21:35.832Z,18.60
2022-10-13T21:24:37.406Z,15.75
2022-10-13T21:27:38.953Z,16.52
2022-10-13T21:30:40.558Z,18.60
2022-10-13T21:33:42.850Z,16.65
2022-10-13T21:36:45.377Z,15.88
2022-10-13T21:39:48.241Z,15.52
2022-10-13T21:42:49.801Z,15.60
2022-10-13T21:45:51.311Z,16.45
2022-10-13T21:49:00.788Z,15.15
2022-10-13T21:52:02.328Z,16.95
2022-10-13T21:55:04.155Z,15.50
2022-10-13T21:58:05.714Z,16.05
2022-10-13T22:01:08.045Z,15.40
2022-10-13T22:04:13.560Z,14.52
2022-10-13T22:07:15.101Z,20.92
2022-10-13T22:10:16.977Z,15.80
2022-10-13T22:13:18.549Z,16.27
2022-10-13T22:16:22.509Z,14.68
2022-10-13T22:19:24.415Z,15.35
2022-10-13T22:22:30.765Z,15.57
2022-10-13T22:25:32.518Z,14.93
2022-10-13T22:28:37.236Z,14.70
2022-10-13T22:31:39.209Z,15.35
2022-10-13T22:34:40.831Z,16.20
2022-10-13T22:37:42.342Z,14.10
2022-10-13T22:40:43.884Z,15.75
2022-10-13T22:43:49.218Z,14.32
2022-10-13T22:46:50.746Z,15.75
2022-10-13T22:49:52.319Z,17.13
2022-10-13T22:52:53.833Z,18.40
2022-10-13T22:55:55.356Z,14.57
2022-10-13T22:59:07.237Z,18.23
2022-10-13T23:02:08.803Z,15.73
2022-10-13T23:05:10.390Z,16.42
2022-10-13T23:08:12.020Z,17.10
2022-10-13T23:11:13.631Z,15.38
2022-10-13T23:14:15.232Z,15.82
2022-10-13T23:17:16.856Z,16.25
2022-10-13T23:20:18.553Z,19.50
2022-10-13T23:23:20.206Z,17.02
2022-10-13T23:26:21.796Z,17.25
2022-10-13T23:29:23.421Z,18.73
2022-10-13T23:32:25.131Z,16.25
2022-10-13T23:35:26.650Z,17.05
2022-10-13T23:38:30.267Z,18.63
2022-10-13T23:41:32.903Z,19.70
2022-10-13T23:44:34.984Z,20.15
2022-10-13T23:47:36.648Z,20.15
2022-10-13T23:50:38.193Z,22.65
2022-10-13T23:53:40.861Z,21.50
2022-10-13T23:56:42.462Z,23.00
2022-10-13T23:59:44.039Z,24.63
